createdAt,value
2024-03-16T00:01:04.002Z,11.09
2024-03-16T00:03:30.749Z,11.04
2024-03-16T00:06:00.294Z,11.07
2024-03-16T00:08:28.885Z,11.08
2024-03-16T00:10:55.619Z,11.08
2024-03-16T00:13:22.120Z,11.08
2024-03-16T00:15:50.551Z,11.01
2024-03-16T00:18:17.380Z,11.07
2024-03-16T00:20:43.950Z,11.05
2024-03-16T00:23:10.517Z,11.07
2024-03-16T00:25:37.074Z,11.10
2024-03-16T00:28:03.872Z,11.14
2024-03-16T00:30:31.163Z,11.13
2024-03-16T00:32:57.755Z,11.17
2024-03-16T00:35:25.693Z,11.18
2024-03-16T00:37:52.280Z,11.12
2024-03-16T00:40:20.484Z,11.12
2024-03-16T00:42:47.522Z,11.11
2024-03-16T00:45:14.289Z,11.08
2024-03-16T00:47:40.871Z,11.08
2024-03-16T00:50:07.820Z,11.10
2024-03-16T00:52:34.343Z,11.09
2024-03-16T00:55:00.892Z,11.11
2024-03-16T00:57:27.425Z,11.09
2024-03-16T00:59:55.748Z,11.04
2024-03-16T01:02:22.315Z,11.01
2024-03-16T01:04:48.866Z,11.03
2024-03-16T01:07:16.263Z,11.02
2024-03-16T01:09:43.075Z,10.95
2024-03-16T01:12:09.569Z,10.94
2024-03-16T01:14:36.121Z,10.89
2024-03-16T01:17:03.255Z,10.89
2024-03-16T01:19:30.148Z,10.87
2024-03-16T01:21:56.768Z,10.88
2024-03-16T01:24:23.306Z,10.90
2024-03-16T01:26:50.233Z,10.83
2024-03-16T01:29:16.987Z,10.87
2024-03-16T01:31:43.613Z,10.88
2024-03-16T01:34:10.261Z,10.86
2024-03-16T01:36:36.932Z,10.89
2024-03-16T01:39:04.236Z,10.92
2024-03-16T01:41:31.040Z,10.89
2024-03-16T01:44:10.197Z,10.89
2024-03-16T01:46:36.748Z,10.95
2024-03-16T01:49:03.289Z,10.98
2024-03-16T01:51:33.005Z,10.96
2024-03-16T01:53:59.521Z,10.97
2024-03-16T01:56:26.164Z,10.99
2024-03-16T01:58:52.731Z,10.97
2024-03-16T02:01:19.444Z,10.94
2024-03-16T02:03:47.824Z,10.92
2024-03-16T02:06:14.491Z,10.86
2024-03-16T02:08:41.837Z,10.92
2024-03-16T02:11:08.498Z,10.85
2024-03-16T02:13:35.150Z,10.78
2024-03-16T02:16:03.183Z,10.80
2024-03-16T02:18:29.827Z,10.74
2024-03-16T02:20:56.920Z,10.71
2024-03-16T02:23:23.922Z,10.70
2024-03-16T02:25:51.610Z,10.69
2024-03-16T02:28:18.147Z,10.65
2024-03-16T02:30:44.882Z,10.58
2024-03-16T02:33:11.784Z,10.55
2024-03-16T02:35:39.287Z,10.54
2024-03-16T02:38:05.902Z,10.44
2024-03-16T02:40:32.988Z,10.46
2024-03-16T02:42:59.548Z,10.37
2024-03-16T02:45:26.322Z,10.36
2024-03-16T02:47:53.357Z,10.29
2024-03-16T02:50:20.990Z,10.23
2024-03-16T02:52:47.673Z,10.17
2024-03-16T02:55:14.948Z,10.12
2024-03-16T02:57:41.623Z,10.10
2024-03-16T03:00:12.065Z,10.06
2024-03-16T03:02:39.289Z,10.06
2024-03-16T03:05:09.007Z,10.04
2024-03-16T03:07:35.494Z,10.07
2024-03-16T03:10:02.178Z,10.16
2024-03-16T03:12:29.238Z,10.17
2024-03-16T03:14:55.894Z,10.15
2024-03-16T03:17:22.394Z,10.11
2024-03-16T03:19:49.861Z,10.09
2024-03-16T03:22:16.520Z,10.15
2024-03-16T03:24:43.162Z,10.17
2024-03-16T03:27:09.936Z,10.17
2024-03-16T03:29:36.458Z,10.23
2024-03-16T03:32:03.079Z,10.25
2024-03-16T03:34:29.845Z,10.21
2024-03-16T03:36:56.431Z,10.22
2024-03-16T03:39:25.733Z,10.15
2024-03-16T03:41:53.714Z,10.19
2024-03-16T03:44:25.309Z,10.15
2024-03-16T03:46:52.752Z,10.08
2024-03-16T03:49:27.814Z,10.06
2024-03-16T03:51:55.281Z,9.97
2024-03-16T03:54:22.301Z,9.97
2024-03-16T03:56:48.878Z,9.99
2024-03-16T03:59:15.457Z,9.96
2024-03-16T04:01:42.049Z,10.00
2024-03-16T04:04:08.627Z,10.03
2024-03-16T04:06:35.215Z,10.04
2024-03-16T04:09:01.709Z,10.05
2024-03-16T04:11:28.271Z,10.12
2024-03-16T04:13:54.735Z,10.08
2024-03-16T04:16:21.320Z,10.12
2024-03-16T04:18:47.981Z,10.12
2024-03-16T04:21:14.630Z,10.17
2024-03-16T04:23:41.429Z,10.17
2024-03-16T04:26:08.356Z,10.15
2024-03-16T04:28:34.878Z,10.15
2024-03-16T04:31:01.423Z,10.15
2024-03-16T04:33:28.555Z,10.15
2024-03-16T04:35:55.133Z,10.13
2024-03-16T04:38:21.801Z,10.09
2024-03-16T04:40:48.397Z,10.02
2024-03-16T04:43:15.062Z,9.99
2024-03-16T04:45:41.759Z,9.99
2024-03-16T04:48:08.290Z,10.04
2024-03-16T04:50:34.953Z,10.02
2024-03-16T04:53:01.587Z,10.03
2024-03-16T04:55:28.243Z,10.00
2024-03-16T04:57:54.754Z,10.00
2024-03-16T05:00:21.256Z,9.99
2024-03-16T05:02:49.391Z,10.06
2024-03-16T05:05:15.900Z,10.04
2024-03-16T05:07:42.487Z,10.02
2024-03-16T05:10:09.974Z,10.02
2024-03-16T05:12:36.695Z,10.04
2024-03-16T05:15:03.432Z,10.02
2024-03-16T05:17:30.204Z,9.97
2024-03-16T05:19:58.933Z,9.99
2024-03-16T05:22:26.685Z,10.00
2024-03-16T05:24:53.473Z,9.99
2024-03-16T05:27:20.020Z,9.95
2024-03-16T05:29:46.529Z,10.01
2024-03-16T05:32:13.161Z,9.95
2024-03-16T05:34:40.922Z,9.93
2024-03-16T05:37:07.562Z,9.94
2024-03-16T05:39:34.258Z,9.97
2024-03-16T05:42:00.867Z,9.96
2024-03-16T05:44:27.453Z,9.97
2024-03-16T05:46:54.177Z,9.95
2024-03-16T05:49:20.791Z,9.99
2024-03-16T05:51:48.867Z,10.02
2024-03-16T05:54:15.332Z,10.03
2024-03-16T05:56:41.882Z,10.04
2024-03-16T05:59:11.977Z,10.02
2024-03-16T06:01:38.822Z,9.98
2024-03-16T06:04:05.421Z,9.97
2024-03-16T06:06:33.426Z,10.00
2024-03-16T06:09:00.117Z,9.99
2024-03-16T06:11:27.659Z,10.02
2024-03-16T06:13:54.192Z,10.09
2024-03-16T06:16:22.765Z,10.10
2024-03-16T06:18:49.726Z,10.10
2024-03-16T06:21:16.283Z,10.11
2024-03-16T06:23:43.583Z,10.09
2024-03-16T06:26:17.897Z,10.07
2024-03-16T06:28:48.111Z,10.10
2024-03-16T06:31:14.975Z,10.09
2024-03-16T06:33:46.648Z,10.11
2024-03-16T06:36:13.396Z,10.17
2024-03-16T06:38:39.920Z,10.20
2024-03-16T06:41:06.511Z,10.28
2024-03-16T06:43:33.678Z,10.28
2024-03-16T06:46:01.945Z,10.33
2024-03-16T06:48:36.710Z,10.35
2024-03-16T06:51:03.413Z,10.35
2024-03-16T06:53:30.055Z,10.37
2024-03-16T06:55:56.633Z,10.33
2024-03-16T06:58:23.804Z,10.37
2024-03-16T07:00:50.374Z,10.44
2024-03-16T07:03:16.956Z,10.46
2024-03-16T07:05:43.440Z,10.49
2024-03-16T07:08:11.899Z,10.51
2024-03-16T07:10:39.146Z,10.47
2024-03-16T07:13:07.671Z,10.48
2024-03-16T07:15:34.278Z,10.53
2024-03-16T07:18:00.901Z,10.55
2024-03-16T07:20:27.463Z,10.57
2024-03-16T07:22:55.345Z,10.61
2024-03-16T07:25:21.969Z,10.64
2024-03-16T07:27:49.120Z,10.69
2024-03-16T07:30:18.207Z,10.76
2024-03-16T07:32:44.762Z,10.78
2024-03-16T07:35:11.294Z,10.79
2024-03-16T07:37:37.733Z,10.82
2024-03-16T07:40:05.325Z,10.88
2024-03-16T07:42:31.860Z,10.95
2024-03-16T07:44:58.337Z,10.98
2024-03-16T07:47:24.975Z,11.02
2024-03-16T07:49:53.204Z,11.03
2024-03-16T07:52:19.750Z,11.01
2024-03-16T07:54:46.243Z,11.00
2024-03-16T07:57:12.720Z,11.04
2024-03-16T07:59:39.533Z,11.05
2024-03-16T08:02:07.325Z,11.05
2024-03-16T08:04:36.057Z,11.03
2024-03-16T08:07:02.532Z,11.05
2024-03-16T08:09:29.176Z,11.07
2024-03-16T08:11:55.919Z,11.09
2024-03-16T08:14:22.419Z,11.12
2024-03-16T08:16:48.967Z,11.15
2024-03-16T08:19:17.742Z,11.18
2024-03-16T08:21:44.412Z,11.23
2024-03-16T08:24:10.881Z,11.26
2024-03-16T08:26:37.349Z,11.25
2024-03-16T08:29:03.830Z,11.31
2024-03-16T08:31:30.485Z,11.37
2024-03-16T08:33:57.260Z,11.38
2024-03-16T08:36:24.447Z,11.47
2024-03-16T08:38:50.922Z,11.54
2024-03-16T08:41:17.403Z,11.62
2024-03-16T08:43:44.831Z,11.70
2024-03-16T08:46:11.410Z,11.77
2024-03-16T08:48:38.050Z,11.76
2024-03-16T08:51:05.794Z,11.76
2024-03-16T08:53:32.684Z,11.83
2024-03-16T08:56:00.963Z,11.83
2024-03-16T08:58:27.464Z,11.87
2024-03-16T09:00:54.658Z,11.83
2024-03-16T09:03:21.346Z,11.76
2024-03-16T09:05:48.870Z,11.73
2024-03-16T09:08:15.348Z,11.71
2024-03-16T09:10:41.828Z,11.68
2024-03-16T09:13:08.862Z,11.66
2024-03-16T09:15:35.490Z,11.67
2024-03-16T09:18:02.055Z,11.71
2024-03-16T09:20:28.531Z,11.78
2024-03-16T09:22:57.241Z,11.90
2024-03-16T09:25:23.893Z,11.99
2024-03-16T09:27:50.415Z,12.06
2024-03-16T09:30:19.106Z,12.06
2024-03-16T09:32:45.601Z,12.07
2024-03-16T09:35:12.331Z,12.07
2024-03-16T09:37:38.986Z,12.08
2024-03-16T09:40:11.388Z,12.13
2024-03-16T09:42:38.458Z,12.11
